Time;durP1;ratioP1;P1;durP2;ratioP2;P2;SDS_P1;SDS_P2;PMS_P1;PMS_P2;Temp;Humidity;BMP_temperature;BMP_pressure;BME280_temperature;BME280_humidity;BME280_pressure;Samples;Min_cycle;Max_cycle;Signal;HPM_P1;HPM_P2
2021/07/14 00:22:58;;;;;;;4.20;3.80;;;;;;;15.41;100.00;95828.41;5070120;28;20545;-65
2021/07/14 00:25:24;;;;;;;4.13;3.80;;;;;;;15.14;100.00;95832.41;5070546;28;20452;-62
2021/07/14 00:27:51;;;;;;;4.30;3.90;;;;;;;15.11;100.00;95832.94;5070682;28;20699;-67
2021/07/14 00:30:23;;;;;;;4.53;4.13;;;;;;;15.22;100.00;95834.50;5058248;28;20203;-68
2021/07/14 00:32:49;;;;;;;4.17;3.87;;;;;;;15.39;100.00;95825.22;5050075;28;20406;-63
2021/07/14 00:35:15;;;;;;;5.23;3.80;;;;;;;15.66;100.00;95824.09;5050535;28;20437;-62
2021/07/14 00:37:40;;;;;;;4.10;3.80;;;;;;;15.67;100.00;95826.47;5053557;28;20163;-64
2021/07/14 00:40:08;;;;;;;4.03;3.63;;;;;;;15.52;100.00;95821.22;5070342;28;20175;-64
2021/07/14 00:42:33;;;;;;;5.60;3.90;;;;;;;15.60;100.00;95810.06;5068516;28;20222;-71
2021/07/14 00:44:59;;;;;;;5.47;3.87;;;;;;;15.48;100.00;95808.78;5070055;28;20468;-70
2021/07/14 00:47:32;;;;;;;6.40;4.00;;;;;;;15.59;100.00;95800.56;5068403;28;20190;-71
2021/07/14 00:49:59;;;;;;;4.60;4.20;;;;;;;14.92;100.00;95778.97;5050240;28;20889;-71
2021/07/14 00:52:24;;;;;;;4.40;4.10;;;;;;;14.97;100.00;95777.13;5049867;28;20398;-64
2021/07/14 00:54:50;;;;;;;5.90;3.57;;;;;;;14.91;100.00;95772.13;5050232;28;20904;-63
2021/07/14 00:57:18;;;;;;;4.50;4.10;;;;;;;15.37;100.00;95763.78;5050333;28;20655;-65
2021/07/14 00:59:43;;;;;;;5.93;4.60;;;;;;;15.62;100.00;95756.84;5049993;28;20425;-65
2021/07/14 01:02:09;;;;;;;4.20;3.80;;;;;;;15.84;100.00;95763.34;5065485;28;20448;-70
2021/07/14 01:04:38;;;;;;;4.43;4.03;;;;;;;15.95;100.00;95785.28;5069801;28;20191;-65
2021/07/14 01:07:23;;;;;;;4.43;4.10;;;;;;;15.99;99.83;95802.22;5069097;28;20266;-71
2021/07/14 01:10:09;;;;;;;4.17;3.77;;;;;;;16.11;99.00;95826.53;5049788;28;20406;-70
2021/07/14 01:12:50;;;;;;;3.73;3.30;;;;;;;16.21;98.05;95827.31;5049367;28;20398;-70
2021/07/14 01:15:17;;;;;;;4.10;3.80;;;;;;;16.07;98.10;95830.81;5049688;28;20432;-64
2021/07/14 01:17:55;;;;;;;3.83;3.50;;;;;;;15.70;100.00;95849.78;5052716;28;20445;-71
2021/07/14 01:20:52;;;;;;;5.80;4.23;;;;;;;15.72;99.87;95852.16;5060002;28;20417;-70
2021/07/14 01:23:56;;;;;;;5.03;3.93;;;;;;;15.81;99.42;95864.59;5049128;28;20415;-64
2021/07/14 01:26:27;;;;;;;4.67;3.27;;;;;;;15.99;99.09;95879.09;5048791;28;20433;-70
2021/07/14 01:28:55;;;;;;;4.20;3.90;;;;;;;15.80;99.39;95886.81;5058844;28;20420;-64
2021/07/14 01:31:22;;;;;;;4.30;3.90;;;;;;;16.14;98.25;95886.97;5069132;28;20433;-70
2021/07/14 01:33:54;;;;;;;4.60;4.20;;;;;;;16.12;98.15;95894.41;5058385;28;20422;-69
2021/07/14 01:36:21;;;;;;;4.73;4.33;;;;;;;16.08;97.87;95901.31;5056183;28;20402;-64
2021/07/14 01:38:48;;;;;;;3.97;3.67;;;;;;;16.18;97.85;95899.41;5044816;28;20443;-69
2021/07/14 01:41:16;;;;;;;5.43;3.70;;;;;;;16.42;97.09;95887.09;5055830;28;20947;-64
2021/07/14 01:43:45;;;;;;;4.53;4.23;;;;;;;16.41;96.52;95892.69;5055387;28;20429;-64
2021/07/14 01:46:13;;;;;;;4.53;4.10;;;;;;;16.42;96.04;95900.38;5054620;28;20406;-70
2021/07/14 01:48:41;;;;;;;4.63;4.10;;;;;;;16.43;95.68;95896.63;5045328;28;20421;-69
2021/07/14 01:51:07;;;;;;;4.10;3.70;;;;;;;16.27;96.11;95899.63;5036095;28;20761;-64
2021/07/14 01:53:35;;;;;;;4.50;4.10;;;;;;;15.85;98.65;95881.50;5036393;28;20434;-69
2021/07/14 01:56:03;;;;;;;4.80;4.40;;;;;;;15.91;98.74;95880.44;5035610;28;20765;-67
2021/07/14 01:58:30;;;;;;;4.60;4.20;;;;;;;16.04;98.47;95882.50;5044063;28;20417;-64
2021/07/14 02:00:56;;;;;;;4.73;4.13;;;;;;;16.31;96.99;95877.63;5055455;28;20794;-64
2021/07/14 02:05:58;;;;;;;4.73;4.20;;;;;;;16.27;97.11;95870.47;5055805;28;20171;-69
2021/07/14 02:08:24;;;;;;;5.13;4.43;;;;;;;16.30;96.50;95870.75;5054771;28;20414;-64
2021/07/14 02:10:51;;;;;;;4.33;3.90;;;;;;;16.46;96.50;95872.22;5055332;28;20447;-70
2021/07/14 02:13:19;;;;;;;6.07;4.80;;;;;;;16.57;95.47;95872.19;5054953;28;20532;-69
2021/07/14 02:15:49;;;;;;;6.87;4.10;;;;;;;16.55;94.86;95871.66;5055611;28;20487;-69
2021/07/14 02:18:16;;;;;;;4.47;3.67;;;;;;;16.62;94.21;95869.50;5049058;28;20437;-69
2021/07/14 02:20:41;;;;;;;7.07;4.40;;;;;;;16.33;95.22;95880.78;5035094;28;20924;-64
2021/07/14 02:23:08;;;;;;;4.90;4.20;;;;;;;15.92;97.39;95863.47;5034736;28;20411;-70
2021/07/14 02:25:33;;;;;;;5.63;5.03;;;;;;;15.93;98.19;95862.41;5035055;28;20201;-64
2021/07/14 02:27:59;;;;;;;4.47;4.17;;;;;;;16.11;97.53;95855.69;5041295;28;20424;-64
2021/07/14 02:30:25;;;;;;;4.67;4.37;;;;;;;16.27;96.87;95854.56;5055109;28;20172;-69
2021/07/14 02:32:52;;;;;;;6.87;4.20;;;;;;;16.07;96.75;95859.97;5054621;28;20847;-64
2021/07/14 02:35:19;;;;;;;5.70;4.33;;;;;;;16.26;95.84;95859.09;5054906;28;20736;-69
2021/07/14 02:38:13;;;;;;;5.50;5.00;;;;;;;16.35;95.48;95862.75;5051362;28;20432;-68
2021/07/14 02:40:48;;;;;;;5.87;4.30;;;;;;;15.80;98.61;95870.94;5044560;28;20483;-64
2021/07/14 02:43:15;;;;;;;7.17;5.53;;;;;;;15.52;100.00;95865.44;5054466;28;20455;-68
2021/07/14 02:45:47;;;;;;;5.33;4.87;;;;;;;15.53;100.00;95872.34;5054065;28;20433;-64
2021/07/14 02:48:13;;;;;;;5.63;5.13;;;;;;;15.58;100.00;95872.34;5044112;28;20789;-64
2021/07/14 02:50:39;;;;;;;5.63;4.93;;;;;;;15.40;100.00;95860.41;5033452;28;20988;-68
2021/07/14 02:53:13;;;;;;;6.70;5.10;;;;;;;15.37;100.00;95871.53;5035578;28;20493;-64
2021/07/14 02:55:41;;;;;;;5.80;5.10;;;;;;;15.33;100.00;95854.59;5035613;28;20237;-69
2021/07/14 02:58:10;;;;;;;5.07;4.57;;;;;;;15.17;100.00;95853.03;5034756;28;20418;-64
2021/07/14 03:00:38;;;;;;;5.37;4.87;;;;;;;14.92;100.00;95850.41;5038653;28;20414;-64
2021/07/14 03:03:08;;;;;;;5.23;4.83;;;;;;;15.00;100.00;95858.59;5054106;28;20410;-64
2021/07/14 03:05:35;;;;;;;6.20;5.60;;;;;;;14.86;100.00;95860.19;5053569;28;20437;-64
2021/07/14 03:08:05;;;;;;;6.67;6.10;;;;;;;14.90;100.00;95861.25;5043236;28;20832;-64
2021/07/14 03:10:31;;;;;;;7.40;5.70;;;;;;;14.80;100.00;95857.81;5034402;28;20398;-69
2021/07/14 03:13:02;;;;;;;6.27;5.67;;;;;;;14.62;100.00;95864.41;5034046;28;20761;-69
2021/07/14 03:15:29;;;;;;;5.97;5.37;;;;;;;14.61;100.00;95868.13;5049576;28;20942;-69
2021/07/14 03:17:56;;;;;;;6.57;5.43;;;;;;;14.67;100.00;95861.78;5054188;28;20416;-69
2021/07/14 03:20:22;;;;;;;6.00;5.50;;;;;;;14.63;100.00;95841.41;5054068;28;20455;-64
2021/07/14 03:22:50;;;;;;;5.97;5.37;;;;;;;14.62;100.00;95853.81;5046512;28;20459;-64
2021/07/14 03:25:16;;;;;;;7.90;5.60;;;;;;;14.63;100.00;95860.72;5034067;28;20431;-64
2021/07/14 03:27:49;;;;;;;6.53;5.90;;;;;;;14.71;100.00;95867.34;5033955;28;20499;-69
2021/07/14 03:30:15;;;;;;;6.00;5.50;;;;;;;14.93;100.00;95865.25;5032754;28;20468;-70
2021/07/14 03:32:40;;;;;;;5.80;5.20;;;;;;;14.74;100.00;95864.97;5037603;28;20418;-70
2021/07/14 03:35:07;;;;;;;8.70;5.80;;;;;;;14.43;100.00;95866.78;5053840;28;20438;-70
2021/07/14 03:37:35;;;;;;;5.53;5.10;;;;;;;14.41;100.00;95871.53;5053834;28;20163;-68
2021/07/14 03:40:06;;;;;;;8.30;5.70;;;;;;;14.65;100.00;95860.44;5053786;28;20410;-63
2021/07/14 03:42:32;;;;;;;6.93;5.63;;;;;;;14.96;100.00;95862.06;5035222;28;20458;-70
2021/07/14 03:44:59;;;;;;;6.50;5.00;;;;;;;14.71;100.00;95867.34;5033742;28;20779;-70
2021/07/14 03:47:25;;;;;;;6.40;5.50;;;;;;;15.01;100.00;95865.50;5033828;28;20425;-64
2021/07/14 03:49:52;;;;;;;5.20;4.80;;;;;;;15.10;100.00;95863.91;5033645;28;20890;-64
2021/07/14 03:52:19;;;;;;;7.23;4.97;;;;;;;15.20;100.00;95863.88;5034255;28;20451;-64
2021/07/14 03:54:46;;;;;;;6.10;5.53;;;;;;;15.14;100.00;95870.25;5033285;28;20435;-64
2021/07/14 03:57:12;;;;;;;5.70;5.17;;;;;;;15.15;100.00;95866.53;5033552;28;20898;-64
2021/07/14 03:59:38;;;;;;;8.37;4.97;;;;;;;15.29;100.00;95872.88;5038913;28;20418;-64
2021/07/14 04:02:06;;;;;;;5.37;4.90;;;;;;;15.45;100.00;95876.34;5052958;28;20195;-64
2021/07/14 04:04:32;;;;;;;5.50;5.10;;;;;;;15.61;100.00;95877.88;5053117;28;21038;-65
2021/07/14 04:07:03;;;;;;;5.00;4.60;;;;;;;15.43;100.00;95867.84;5053430;28;20501;-70
2021/07/14 04:09:28;;;;;;;5.90;5.40;;;;;;;15.27;100.00;95872.34;5052588;28;20179;-64
2021/07/14 04:11:57;;;;;;;5.87;5.27;;;;;;;15.27;100.00;95871.56;5052912;28;20496;-64
2021/07/14 04:14:25;;;;;;;5.10;4.67;;;;;;;15.61;100.00;95879.72;5033594;28;20570;-70
2021/07/14 04:16:52;;;;;;;5.33;4.83;;;;;;;15.62;100.00;95879.47;5033383;28;20411;-70
2021/07/14 04:19:17;;;;;;;5.70;5.20;;;;;;;15.53;100.00;95873.13;5033252;28;20420;-64
2021/07/14 04:21:43;;;;;;;5.40;5.00;;;;;;;15.37;100.00;95867.03;5038354;28;21307;-64
2021/07/14 04:24:08;;;;;;;4.37;3.97;;;;;;;15.29;100.00;95872.88;5051758;28;20199;-70
2021/07/14 04:26:34;;;;;;;6.03;4.10;;;;;;;15.36;100.00;95872.63;5053342;28;20171;-64
2021/07/14 04:29:00;;;;;;;5.53;5.03;;;;;;;15.30;100.00;95871.03;5053195;28;20172;-70
2021/07/14 04:31:25;;;;;;;4.93;4.43;;;;;;;15.54;100.00;95871.28;5052952;28;20406;-65
2021/07/14 04:33:51;;;;;;;5.27;4.77;;;;;;;15.00;100.00;95869.19;5053012;28;20258;-63
2021/07/14 04:36:16;;;;;;;5.30;4.90;;;;;;;15.11;100.00;95865.47;5038985;28;20592;-63
2021/07/14 04:38:42;;;;;;;6.90;4.30;;;;;;;15.21;100.00;95864.69;5033067;28;20183;-69
2021/07/14 04:41:07;;;;;;;4.70;4.40;;;;;;;15.08;100.00;95867.84;5033293;28;20208;-63
2021/07/14 04:43:34;;;;;;;5.40;4.27;;;;;;;15.14;100.00;95867.59;5031360;28;20204;-69
2021/07/14 04:45:59;;;;;;;6.67;5.13;;;;;;;14.96;100.00;95856.75;5033221;28;20191;-64
2021/07/14 04:48:25;;;;;;;5.10;4.70;;;;;;;15.06;100.00;95857.53;5033033;28;20899;-70
2021/07/14 04:50:52;;;;;;;4.60;3.87;;;;;;;14.90;100.00;95861.25;5045410;28;20179;-64
2021/07/14 04:53:17;;;;;;;5.03;4.50;;;;;;;14.92;100.00;95855.69;5052337;28;20916;-64
2021/07/14 04:55:43;;;;;;;6.03;5.63;;;;;;;14.90;100.00;95852.53;5052829;28;20504;-64
2021/07/14 04:58:09;;;;;;;6.83;4.00;;;;;;;14.95;100.00;95852.50;5052924;28;20171;-64
2021/07/14 05:00:34;;;;;;;4.83;4.43;;;;;;;14.86;100.00;95846.16;5052871;28;20163;-64
2021/07/14 05:02:59;;;;;;;4.67;4.27;;;;;;;14.77;100.00;95853.03;5052439;28;20665;-69
2021/07/14 05:05:25;;;;;;;5.40;4.90;;;;;;;14.80;100.00;95849.88;5050761;28;20195;-64
2021/07/14 05:07:51;;;;;;;6.13;5.60;;;;;;;14.90;100.00;95848.03;5053379;28;20199;-65
2021/07/14 05:10:21;;;;;;;5.67;4.80;;;;;;;15.14;100.00;95854.38;5035741;28;20275;-69
2021/07/14 05:12:49;;;;;;;5.70;5.30;;;;;;;15.12;100.00;95847.75;5036343;28;20192;-63
2021/07/14 05:15:14;;;;;;;5.17;4.77;;;;;;;15.25;100.00;95853.28;5036239;28;20440;-70
2021/07/14 05:17:40;;;;;;;6.80;5.00;;;;;;;15.21;100.00;95851.44;5036670;28;20414;-70
2021/07/14 05:20:07;;;;;;;4.97;4.57;;;;;;;15.41;100.00;95848.78;5036357;28;20187;-65
2021/07/14 05:22:32;;;;;;;5.07;4.67;;;;;;;15.57;100.00;95850.34;5034731;28;20215;-71
2021/07/14 05:24:58;;;;;;;4.60;4.20;;;;;;;15.77;99.99;95857.44;5036191;28;20430;-64
2021/07/14 05:27:23;;;;;;;9.13;5.07;;;;;;;15.70;100.00;95855.06;5036291;28;20247;-64
2021/07/14 05:29:48;;;;;;;5.17;4.10;;;;;;;15.48;100.00;95856.44;5036191;28;20638;-70
2021/07/14 05:32:14;;;;;;;4.90;4.50;;;;;;;15.48;100.00;95853.81;5041438;28;20228;-64
2021/07/14 05:34:39;;;;;;;7.20;4.60;;;;;;;15.68;99.82;95851.91;5055989;28;20191;-70
2021/07/14 05:37:05;;;;;;;5.37;4.97;;;;;;;15.60;100.00;95851.66;5055985;28;20194;-70
2021/07/14 05:39:30;;;;;;;6.20;4.63;;;;;;;15.34;100.00;95846.38;5056206;28;20167;-64
2021/07/14 05:41:55;;;;;;;5.30;4.90;;;;;;;15.42;100.00;95853.81;5055632;28;20670;-65
2021/07/14 05:44:21;;;;;;;5.17;4.60;;;;;;;15.56;100.00;95854.06;5055764;28;20202;-69
2021/07/14 05:46:46;;;;;;;5.13;4.17;;;;;;;15.70;99.35;95865.69;5051663;28;20202;-70
2021/07/14 05:49:12;;;;;;;5.43;4.93;;;;;;;15.60;99.67;95852.44;5036058;28;20176;-64
2021/07/14 05:51:38;;;;;;;5.70;5.07;;;;;;;15.92;99.19;95860.03;5035401;28;20619;-65
2021/07/14 05:54:03;;;;;;;7.73;4.50;;;;;;;15.97;98.22;95863.47;5035796;28;20257;-70
2021/07/14 05:56:29;;;;;;;5.30;3.83;;;;;;;16.14;97.20;95861.25;5049746;28;20179;-65
2021/07/14 05:58:54;;;;;;;4.33;4.03;;;;;;;16.18;96.23;95862.28;5055596;28;20410;-70
2021/07/14 06:01:21;;;;;;;5.10;4.70;;;;;;;15.83;97.91;95862.47;5054317;28;20191;-70
2021/07/14 06:03:47;;;;;;;4.70;4.40;;;;;;;16.18;96.45;95854.34;5054952;28;20253;-71
2021/07/14 06:06:14;;;;;;;6.00;4.00;;;;;;;16.09;96.61;95858.63;5055386;28;20410;-65
2021/07/14 06:08:39;;;;;;;4.10;3.70;;;;;;;16.22;96.08;95855.38;5055403;28;20417;-71
2021/07/14 06:11:05;;;;;;;4.30;3.93;;;;;;;16.32;95.22;95860.63;5055318;28;20954;-70
2021/07/14 06:13:30;;;;;;;5.17;4.50;;;;;;;16.33;94.95;95859.56;5054732;28;20592;-70
2021/07/14 06:15:56;;;;;;;5.23;4.73;;;;;;;16.14;96.74;95863.13;5054719;28;20183;-69
2021/07/14 06:18:21;;;;;;;3.80;3.50;;;;;;;16.34;95.95;95863.03;5055276;28;20648;-65
2021/07/14 06:20:47;;;;;;;4.93;3.93;;;;;;;16.49;95.45;95867.47;5054865;28;20176;-70
2021/07/14 06:23:12;;;;;;;5.10;4.70;;;;;;;16.43;95.16;95870.09;5054824;28;20638;-65
2021/07/14 06:25:37;;;;;;;4.87;4.30;;;;;;;16.73;94.29;95881.63;5050187;28;20255;-70
2021/07/14 06:28:05;;;;;;;4.60;4.20;;;;;;;16.27;95.54;95879.22;5035308;28;20172;-70
2021/07/14 06:30:30;;;;;;;5.60;3.77;;;;;;;16.42;95.44;95878.34;5047501;28;20214;-71
2021/07/14 06:32:56;;;;;;;8.40;4.30;;;;;;;15.98;97.00;95888.13;5042866;28;20890;-71
2021/07/14 06:35:21;;;;;;;4.20;3.90;;;;;;;16.33;96.29;95880.78;5034908;28;20195;-70
2021/07/14 06:37:48;;;;;;;6.30;4.13;;;;;;;15.97;97.95;95873.25;5033696;28;20171;-70
2021/07/14 06:40:14;;;;;;;7.03;4.77;;;;;;;16.12;97.67;95871.34;5052068;28;20184;-65
2021/07/14 06:42:40;;;;;;;6.13;3.83;;;;;;;16.08;97.90;95878.25;5054422;28;20479;-65
2021/07/14 06:45:07;;;;;;;5.10;4.40;;;;;;;16.11;97.62;95875.06;5051081;28;20445;-71
2021/07/14 06:47:34;;;;;;;4.57;4.17;;;;;;;16.41;96.57;95879.44;5034883;28;20684;-65
2021/07/14 06:49:59;;;;;;;4.17;3.53;;;;;;;16.55;95.15;95874.31;5034670;28;20411;-65
2021/07/14 06:52:24;;;;;;;5.00;4.30;;;;;;;16.60;95.27;95874.28;5033128;28;20415;-67
2021/07/14 06:54:50;;;;;;;5.30;4.33;;;;;;;16.87;94.03;95875.44;5034566;28;20207;-66
2021/07/14 06:57:15;;;;;;;4.87;4.47;;;;;;;17.08;93.34;95865.47;5034655;28;20184;-69
2021/07/14 06:59:41;;;;;;;5.57;4.60;;;;;;;16.66;94.04;95865.22;5039835;28;20566;-64
2021/07/14 07:02:07;;;;;;;3.93;3.63;;;;;;;16.86;93.18;95868.56;5051989;28;20191;-64
2021/07/14 07:04:32;;;;;;;5.40;4.17;;;;;;;17.20;92.14;95865.88;5051446;28;20207;-66
2021/07/14 07:06:58;;;;;;;4.60;4.20;;;;;;;16.81;94.02;95867.78;5034536;28;20932;-66
2021/07/14 07:09:24;;;;;;;3.80;3.50;;;;;;;17.16;92.89;95862.97;5047127;28;20259;-62
2021/07/14 07:11:50;;;;;;;4.33;4.03;;;;;;;17.38;93.20;95865.97;5053934;28;20467;-62
2021/07/14 07:14:15;;;;;;;4.07;3.77;;;;;;;17.48;91.50;95862.47;5054324;28;20210;-65
2021/07/14 07:16:41;;;;;;;4.40;4.00;;;;;;;17.41;90.37;95859.31;5054144;28;20194;-62
2021/07/14 07:19:06;;;;;;;4.33;3.60;;;;;;;17.35;91.29;95865.75;5046870;28;20548;-62
2021/07/14 07:21:33;;;;;;;4.00;3.60;;;;;;;17.42;90.31;95860.91;5033651;28;20293;-64
2021/07/14 07:23:58;;;;;;;5.40;3.50;;;;;;;17.67;90.39;95849.22;5053829;28;20716;-62
2021/07/14 07:26:25;;;;;;;4.33;3.50;;;;;;;17.80;89.87;95861.84;5054373;28;20410;-62
2021/07/14 07:28:57;;;;;;;7.37;4.13;;;;;;;17.19;90.45;95859.75;5053136;28;20203;-64
2021/07/14 07:31:23;;;;;;;4.70;3.83;;;;;;;16.97;92.90;95861.28;5053487;28;20959;-64
2021/07/14 07:33:49;;;;;;;4.80;3.73;;;;;;;17.22;91.49;95861.06;5049243;28;20434;-62
2021/07/14 07:36:15;;;;;;;6.13;4.17;;;;;;;17.17;91.51;95872.56;5046390;28;20928;-61
2021/07/14 07:38:40;;;;;;;4.80;4.00;;;;;;;16.73;93.56;95882.44;5053893;28;20217;-65
2021/07/14 07:41:06;;;;;;;4.77;4.37;;;;;;;17.02;92.83;95882.47;5053699;28;20187;-67
2021/07/14 07:43:32;;;;;;;3.60;3.30;;;;;;;16.39;95.43;95890.31;5053444;28;20670;-61
2021/07/14 07:45:58;;;;;;;11.53;4.33;;;;;;;16.32;96.82;95891.66;5052882;28;20171;-63
2021/07/14 07:48:23;;;;;;;7.93;3.83;;;;;;;16.56;96.73;95892.59;5033647;28;20175;-64
2021/07/14 07:50:50;;;;;;;5.00;3.73;;;;;;;16.54;97.19;95891.31;5033570;28;20415;-65
2021/07/14 07:53:19;;;;;;;5.70;4.10;;;;;;;16.59;95.93;95891.28;5033177;28;20207;-64
2021/07/14 07:55:49;;;;;;;5.50;3.67;;;;;;;16.82;94.95;95894.06;5033573;28;20429;-62
2021/07/14 07:58:15;;;;;;;6.47;4.17;;;;;;;16.63;94.79;95894.97;5033625;28;20465;-64
2021/07/14 08:00:42;;;;;;;6.20;4.83;;;;;;;16.42;97.32;95887.09;5037654;28;20418;-62
2021/07/14 08:03:07;;;;;;;6.60;4.70;;;;;;;16.25;97.39;95884.00;5033156;28;20875;-62
2021/07/14 08:05:33;;;;;;;9.13;4.73;;;;;;;16.60;96.93;95879.59;5035291;28;20447;-61
2021/07/14 08:07:58;;;;;;;4.33;3.90;;;;;;;16.63;96.07;95879.84;5033683;28;20194;-65
2021/07/14 08:10:24;;;;;;;5.70;4.30;;;;;;;16.58;95.40;95897.66;5033364;28;20666;-65
2021/07/14 08:12:50;;;;;;;5.03;3.80;;;;;;;16.86;95.10;95911.00;5033084;28;20168;-61
2021/07/14 08:15:16;;;;;;;5.40;4.60;;;;;;;16.85;94.22;95912.06;5033276;28;20686;-61
2021/07/14 08:17:42;;;;;;;4.83;3.57;;;;;;;17.19;92.79;95923.50;5031981;28;20419;-62
2021/07/14 08:20:09;;;;;;;5.77;4.07;;;;;;;17.30;92.69;95938.28;5033399;28;20410;-61
2021/07/14 08:22:35;;;;;;;4.13;3.83;;;;;;;17.34;92.04;95941.16;5032820;28;20229;-61
2021/07/14 08:25:01;;;;;;;3.60;3.30;;;;;;;17.17;92.68;95949.56;5033307;28;20791;-68
2021/07/14 08:27:26;;;;;;;4.17;3.87;;;;;;;17.08;93.78;95939.78;5040364;28;20190;-60
2021/07/14 08:29:58;;;;;;;4.30;4.00;;;;;;;17.10;93.35;95945.63;5050965;28;20418;-62
2021/07/14 08:32:24;;;;;;;3.60;3.40;;;;;;;16.88;93.44;95932.75;5051574;28;20177;-62
2021/07/14 08:34:49;;;;;;;4.83;4.30;;;;;;;16.93;94.37;95927.41;5047734;28;20453;-61
2021/07/14 08:37:14;;;;;;;5.53;4.27;;;;;;;16.74;95.97;95929.13;5049261;28;20191;-66
2021/07/14 08:39:40;;;;;;;4.37;4.07;;;;;;;16.97;94.62;95931.13;5048231;28;20179;-61
2021/07/14 08:42:05;;;;;;;3.93;3.63;;;;;;;17.16;94.44;95928.56;5043167;28;20207;-61
2021/07/14 08:44:34;;;;;;;4.70;4.30;;;;;;;17.01;92.91;95934.00;5052802;28;20246;-66
2021/07/14 08:47:00;;;;;;;3.87;3.63;;;;;;;16.91;95.00;95928.75;5056959;28;20179;-66
2021/07/14 08:49:26;;;;;;;5.03;4.37;;;;;;;16.84;96.16;95929.06;5056757;28;20413;-67
2021/07/14 08:51:53;;;;;;;5.20;4.10;;;;;;;17.11;94.87;95939.22;5039393;28;20414;-67
2021/07/14 08:54:20;;;;;;;4.30;4.00;;;;;;;17.26;94.35;95947.09;5036826;28;20310;-62
2021/07/14 08:56:46;;;;;;;4.20;3.90;;;;;;;17.29;93.11;95959.81;5039058;28;20415;-66
2021/07/14 08:59:11;;;;;;;4.10;3.80;;;;;;;17.65;92.40;95965.66;5044142;28;20520;-61
2021/07/14 09:01:37;;;;;;;4.53;4.17;;;;;;;17.63;91.91;95960.63;5053697;28;20544;-61
2021/07/14 09:04:04;;;;;;;4.60;4.20;;;;;;;17.38;90.57;95964.25;5044564;28;20214;-63
2021/07/14 09:06:31;;;;;;;5.37;4.83;;;;;;;17.18;94.01;95975.03;5044434;28;20520;-63
2021/07/14 09:08:56;;;;;;;4.77;4.10;;;;;;;17.31;92.13;95960.31;5046571;28;20964;-62
2021/07/14 09:11:22;;;;;;;5.00;4.60;;;;;;;17.27;92.11;95957.44;5056575;28;20497;-61
2021/07/14 09:13:47;;;;;;;4.97;4.37;;;;;;;17.30;93.11;95948.13;5056052;28;20191;-63
2021/07/14 09:16:35;;;;;;;4.60;4.20;;;;;;;17.51;92.33;95954.88;5047252;28;20183;-64
2021/07/14 09:19:13;;;;;;;4.60;4.00;;;;;;;17.33;91.08;95952.88;5038169;28;20216;-61
2021/07/14 09:21:40;;;;;;;5.23;4.00;;;;;;;17.30;91.29;95956.09;5035958;28;20855;-61
2021/07/14 09:24:26;;;;;;;5.27;4.40;;;;;;;17.23;93.00;95955.59;5036005;28;20968;-63
2021/07/14 09:26:53;;;;;;;4.67;4.20;;;;;;;17.55;92.03;95957.78;5034984;28;20413;-60
2021/07/14 09:29:18;;;;;;;7.23;4.20;;;;;;;17.61;90.88;95946.03;5036255;28;20822;-63
2021/07/14 09:31:45;;;;;;;4.10;3.80;;;;;;;17.31;91.22;95957.66;5052746;28;20425;-62
2021/07/14 09:34:31;;;;;;;6.60;3.70;;;;;;;17.39;92.25;95959.75;5053390;28;20373;-63
2021/07/14 09:37:04;;;;;;;6.33;3.63;;;;;;;17.55;91.94;95950.59;5034894;28;20828;-62
2021/07/14 09:39:33;;;;;;;4.20;3.90;;;;;;;17.74;90.56;95956.00;5036178;28;20494;-63
2021/07/14 09:42:06;;;;;;;4.40;3.70;;;;;;;17.62;90.19;95953.72;5035757;28;20458;-62
2021/07/14 09:44:32;;;;;;;4.10;3.73;;;;;;;17.63;91.33;95947.31;5042963;28;20847;-63
2021/07/14 09:47:15;;;;;;;4.70;4.40;;;;;;;17.82;90.38;95945.56;5056040;28;20410;-62
2021/07/14 09:49:41;;;;;;;3.80;3.60;;;;;;;18.11;88.83;95938.34;5055825;28;20172;-63
2021/07/14 09:52:17;;;;;;;4.70;3.33;;;;;;;18.34;87.57;95942.06;5055502;28;20410;-61
2021/07/14 09:54:43;;;;;;;3.93;3.53;;;;;;;18.12;88.36;95939.91;5055523;28;20191;-64
2021/07/14 09:57:13;;;;;;;4.03;3.73;;;;;;;17.69;90.12;95948.88;5055900;28;20441;-63
2021/07/14 09:59:39;;;;;;;3.50;3.20;;;;;;;17.59;89.83;95942.88;5052569;28;20422;-63
2021/07/14 10:02:05;;;;;;;4.27;3.97;;;;;;;17.52;91.07;95955.69;5053797;28;20485;-63
2021/07/14 10:04:34;;;;;;;4.60;4.20;;;;;;;17.59;91.50;95951.63;5035691;28;20271;-63
2021/07/14 10:07:30;;;;;;;6.40;4.23;;;;;;;17.50;89.84;95958.63;5035908;28;20183;-64
2021/07/14 10:10:09;;;;;;;3.73;3.43;;;;;;;17.69;90.12;95951.53;5034136;28;20419;-63
2021/07/14 10:12:36;;;;;;;3.97;3.57;;;;;;;17.95;89.55;95954.75;5035467;28;20403;-62
2021/07/14 10:15:08;;;;;;;3.40;3.10;;;;;;;17.90;88.27;95954.81;5035640;28;20438;-63
2021/07/14 10:17:39;;;;;;;4.23;3.93;;;;;;;18.03;88.09;95956.75;5050213;28;21007;-62
2021/07/14 10:20:27;;;;;;;4.37;3.50;;;;;;;18.28;89.32;95959.94;5055495;28;20758;-63
2021/07/14 10:22:56;;;;;;;3.70;3.40;;;;;;;18.73;87.11;95961.31;5054691;28;20963;-64
2021/07/14 10:25:22;;;;;;;3.47;3.20;;;;;;;19.02;84.38;95969.16;5055321;28;20422;-62
2021/07/14 10:27:49;;;;;;;4.03;3.33;;;;;;;18.97;84.89;95962.00;5055300;28;20408;-62
2021/07/14 10:30:17;;;;;;;4.63;3.27;;;;;;;19.36;84.65;95969.75;5055280;28;20442;-63
2021/07/14 10:32:43;;;;;;;3.97;3.67;;;;;;;19.13;83.34;95965.28;5037820;28;20434;-62
2021/07/14 10:35:11;;;;;;;3.67;3.20;;;;;;;19.25;83.44;95969.06;5040119;28;20437;-62
2021/07/14 10:37:40;;;;;;;4.80;2.87;;;;;;;19.04;82.91;95967.00;5034844;28;20204;-62
2021/07/14 10:40:07;;;;;;;2.83;2.60;;;;;;;19.20;83.39;95965.69;5037193;28;20480;-62
2021/07/14 10:42:34;;;;;;;54.70;47.30;;;;;;;19.33;84.70;95965.00;5034504;28;20781;-62
2021/07/14 10:45:02;;;;;;;3.50;3.20;;;;;;;19.67;81.99;95970.84;5035166;28;20478;-64
2021/07/14 10:47:28;;;;;;;3.70;3.03;;;;;;;19.58;80.85;95966.44;5034761;28;20415;-62
2021/07/14 10:49:55;;;;;;;2.87;2.67;;;;;;;19.61;79.73;95966.66;5034963;28;20755;-62
2021/07/14 10:52:22;;;;;;;3.10;2.90;;;;;;;19.80;79.99;95969.28;5034416;28;20425;-61
2021/07/14 10:54:48;;;;;;;2.20;2.10;;;;;;;20.09;79.74;95970.59;5034593;28;20443;-64
2021/07/14 10:57:14;;;;;;;2.50;2.40;;;;;;;20.14;79.10;95969.72;5034674;28;20413;-61
2021/07/14 10:59:40;;;;;;;2.53;2.30;;;;;;;20.06;76.30;95965.88;5040064;28;20574;-62
2021/07/14 11:02:05;;;;;;;1.47;1.40;;;;;;;20.13;76.16;95974.28;5052315;28;20462;-62
2021/07/14 11:04:31;;;;;;;1.80;1.70;;;;;;;19.69;73.53;95968.66;5038163;28;20204;-60
2021/07/14 11:07:02;;;;;;;1.70;1.63;;;;;;;19.77;73.57;95970.66;5038800;28;20175;-62
2021/07/14 11:09:35;;;;;;;1.90;1.80;;;;;;;19.74;74.25;95971.25;5051140;28;20172;-61
2021/07/14 11:12:02;;;;;;;2.23;1.70;;;;;;;19.78;74.12;95969.59;5050668;28;20406;-62
2021/07/14 11:14:38;;;;;;;1.47;1.37;;;;;;;19.76;71.55;95979.75;5050729;28;20426;-63
2021/07/14 11:17:06;;;;;;;1.97;1.87;;;;;;;19.69;71.50;95984.66;5031991;28;20967;-62
2021/07/14 11:19:46;;;;;;;1.83;1.73;;;;;;;20.14;74.33;95970.53;5029714;28;20794;-64
2021/07/14 11:22:12;;;;;;;2.20;1.80;;;;;;;20.55;72.74;95972.41;5037715;28;20462;-63
2021/07/14 11:24:41;;;;;;;1.60;1.50;;;;;;;20.58;68.81;95959.28;5047738;28;20536;-63
2021/07/14 11:27:19;;;;;;;2.00;1.90;;;;;;;20.73;68.66;95969.63;5048927;28;20432;-62
2021/07/14 11:30:11;;;;;;;1.30;1.30;;;;;;;20.55;68.96;95975.88;5050033;28;21035;-64
2021/07/14 11:32:40;;;;;;;1.70;1.60;;;;;;;21.09;73.20;95959.00;5049847;28;20537;-63
2021/07/14 11:35:34;;;;;;;1.80;1.70;;;;;;;20.60;67.99;95962.44;5050453;28;20467;-62
2021/07/14 11:38:02;;;;;;;1.73;1.63;;;;;;;21.05;67.47;95958.81;5050421;28;20418;-63
2021/07/14 11:40:35;;;;;;;1.83;1.67;;;;;;;21.00;67.63;95956.25;5031557;28;20517;-62
2021/07/14 11:43:23;;;;;;;1.50;1.40;;;;;;;20.99;68.07;95961.88;5030034;28;20457;-63
2021/07/14 11:46:06;;;;;;;2.00;1.43;;;;;;;21.06;68.51;95954.25;5029781;28;20981;-63
2021/07/14 11:48:34;;;;;;;1.63;1.53;;;;;;;20.86;68.68;95952.81;5030409;28;20418;-63
2021/07/14 11:51:02;;;;;;;1.80;1.60;;;;;;;20.54;68.66;95955.63;5030243;28;20410;-63
2021/07/14 11:53:37;;;;;;;1.83;1.40;;;;;;;20.15;69.82;95948.09;5032753;28;20418;-63
2021/07/14 11:56:22;;;;;;;1.30;1.20;;;;;;;20.47;68.87;95941.91;5048822;28;20504;-63
2021/07/14 11:59:11;;;;;;;1.53;1.43;;;;;;;20.80;67.28;95932.63;5050220;28;20414;-63
2021/07/14 12:01:46;;;;;;;1.50;1.40;;;;;;;21.12;67.07;95932.50;5049761;28;20450;-61